sensor_id;sensor_type;location;lat;lon;timestamp;temperature;humidity
26408;DHT22;14583;43.604;1.364;2023-03-01T00:01:12;2.60;94.80
26408;DHT22;14583;43.604;1.364;2023-03-01T00:03:39;2.60;94.80
26408;DHT22;14583;43.604;1.364;2023-03-01T00:06:05;2.60;94.70
26408;DHT22;14583;43.604;1.364;2023-03-01T00:08:31;2.70;94.90
26408;DHT22;14583;43.604;1.364;2023-03-01T00:11:03;2.70;94.90
26408;DHT22;14583;43.604;1.364;2023-03-01T00:13:29;2.60;94.90
26408;DHT22;14583;43.604;1.364;2023-03-01T00:15:55;2.60;95.00
26408;DHT22;14583;43.604;1.364;2023-03-01T00:18:21;2.50;95.00
26408;DHT22;14583;43.604;1.364;2023-03-01T00:20:54;2.60;95.00
26408;DHT22;14583;43.604;1.364;2023-03-01T00:23:21;2.60;94.90
26408;DHT22;14583;43.604;1.364;2023-03-01T00:25:48;2.60;94.90
26408;DHT22;14583;43.604;1.364;2023-03-01T00:28:13;2.60;95.00
26408;DHT22;14583;43.604;1.364;2023-03-01T00:30:39;2.70;94.90
26408;DHT22;14583;43.604;1.364;2023-03-01T00:33:05;2.70;94.80
26408;DHT22;14583;43.604;1.364;2023-03-01T00:35:32;2.80;94.80
26408;DHT22;14583;43.604;1.364;2023-03-01T00:37:58;2.90;94.70
26408;DHT22;14583;43.604;1.364;2023-03-01T00:40:25;2.90;94.60
26408;DHT22;14583;43.604;1.364;2023-03-01T00:42:51;2.80;94.50
26408;DHT22;14583;43.604;1.364;2023-03-01T00:45:17;2.70;94.60
26408;DHT22;14583;43.604;1.364;2023-03-01T00:47:43;2.80;94.50
26408;DHT22;14583;43.604;1.364;2023-03-01T00:50:10;2.70;94.50
26408;DHT22;14583;43.604;1.364;2023-03-01T00:52:36;2.60;94.50
26408;DHT22;14583;43.604;1.364;2023-03-01T00:55:03;2.70;94.80
26408;DHT22;14583;43.604;1.364;2023-03-01T00:57:29;2.70;94.70
26408;DHT22;14583;43.604;1.364;2023-03-01T00:59:55;2.80;94.60
26408;DHT22;14583;43.604;1.364;2023-03-01T01:02:21;2.80;94.50
26408;DHT22;14583;43.604;1.364;2023-03-01T01:04:47;2.80;94.40
26408;DHT22;14583;43.604;1.364;2023-03-01T01:07:13;2.80;94.30
26408;DHT22;14583;43.604;1.364;2023-03-01T01:09:39;2.70;94.40
26408;DHT22;14583;43.604;1.364;2023-03-01T01:12:05;2.80;94.60
26408;DHT22;14583;43.604;1.364;2023-03-01T01:14:30;2.70;94.50
26408;DHT22;14583;43.604;1.364;2023-03-01T01:16:56;2.70;94.50
26408;DHT22;14583;43.604;1.364;2023-03-01T01:19:22;2.70;94.50
26408;DHT22;14583;43.604;1.364;2023-03-01T01:21:48;2.70;94.50
26408;DHT22;14583;43.604;1.364;2023-03-01T01:24:15;2.60;94.50
26408;DHT22;14583;43.604;1.364;2023-03-01T01:26:42;2.60;94.60
26408;DHT22;14583;43.604;1.364;2023-03-01T01:29:08;2.60;94.60
26408;DHT22;14583;43.604;1.364;2023-03-01T01:31:35;2.50;94.60
26408;DHT22;14583;43.604;1.364;2023-03-01T01:34:02;2.50;94.60
26408;DHT22;14583;43.604;1.364;2023-03-01T01:36:28;2.50;94.60
26408;DHT22;14583;43.604;1.364;2023-03-01T01:38:54;2.50;94.70
26408;DHT22;14583;43.604;1.364;2023-03-01T01:41:21;2.40;94.80
26408;DHT22;14583;43.604;1.364;2023-03-01T01:43:49;2.40;94.80
26408;DHT22;14583;43.604;1.364;2023-03-01T01:47:19;2.30;94.70
26408;DHT22;14583;43.604;1.364;2023-03-01T01:52:16;2.30;94.80
26408;DHT22;14583;43.604;1.364;2023-03-01T01:54:53;2.30;94.90
26408;DHT22;14583;43.604;1.364;2023-03-01T01:57:25;2.30;94.90
26408;DHT22;14583;43.604;1.364;2023-03-01T01:59:53;2.30;94.90
26408;DHT22;14583;43.604;1.364;2023-03-01T02:02:20;2.20;95.30
26408;DHT22;14583;43.604;1.364;2023-03-01T02:04:48;2.20;95.00
26408;DHT22;14583;43.604;1.364;2023-03-01T02:07:18;2.20;95.00
26408;DHT22;14583;43.604;1.364;2023-03-01T02:09:49;2.10;95.00
26408;DHT22;14583;43.604;1.364;2023-03-01T02:12:21;2.20;95.10
26408;DHT22;14583;43.604;1.364;2023-03-01T02:14:48;2.20;95.00
26408;DHT22;14583;43.604;1.364;2023-03-01T02:17:16;2.10;95.00
26408;DHT22;14583;43.604;1.364;2023-03-01T02:22:25;2.10;95.00
26408;DHT22;14583;43.604;1.364;2023-03-01T02:30:33;2.00;95.10
26408;DHT22;14583;43.604;1.364;2023-03-01T02:33:01;2.00;95.10
26408;DHT22;14583;43.604;1.364;2023-03-01T02:35:35;2.00;95.10
26408;DHT22;14583;43.604;1.364;2023-03-01T02:38:02;2.00;95.10
26408;DHT22;14583;43.604;1.364;2023-03-01T02:40:30;2.00;95.20
26408;DHT22;14583;43.604;1.364;2023-03-01T02:42:58;2.00;95.10
26408;DHT22;14583;43.604;1.364;2023-03-01T02:45:25;2.00;95.10
26408;DHT22;14583;43.604;1.364;2023-03-01T02:47:55;1.90;95.30
26408;DHT22;14583;43.604;1.364;2023-03-01T02:53:04;1.70;95.30
26408;DHT22;14583;43.604;1.364;2023-03-01T02:55:32;1.70;95.40
26408;DHT22;14583;43.604;1.364;2023-03-01T02:58:02;1.60;95.70
26408;DHT22;14583;43.604;1.364;2023-03-01T03:00:41;1.50;95.60
26408;DHT22;14583;43.604;1.364;2023-03-01T03:03:17;1.50;95.70
26408;DHT22;14583;43.604;1.364;2023-03-01T03:05:44;1.50;95.70
26408;DHT22;14583;43.604;1.364;2023-03-01T03:08:10;1.50;95.70
26408;DHT22;14583;43.604;1.364;2023-03-01T03:10:38;1.50;95.70
26408;DHT22;14583;43.604;1.364;2023-03-01T03:13:10;1.40;95.80
26408;DHT22;14583;43.604;1.364;2023-03-01T03:15:36;1.40;95.90
26408;DHT22;14583;43.604;1.364;2023-03-01T03:18:06;1.40;96.00
26408;DHT22;14583;43.604;1.364;2023-03-01T03:20:33;1.40;96.00
26408;DHT22;14583;43.604;1.364;2023-03-01T03:22:59;1.40;96.10
26408;DHT22;14583;43.604;1.364;2023-03-01T03:25:26;1.40;96.20
26408;DHT22;14583;43.604;1.364;2023-03-01T03:27:52;1.30;96.20
26408;DHT22;14583;43.604;1.364;2023-03-01T03:30:23;1.20;96.40
26408;DHT22;14583;43.604;1.364;2023-03-01T03:32:49;1.20;96.50
26408;DHT22;14583;43.604;1.364;2023-03-01T03:35:24;1.20;96.50
26408;DHT22;14583;43.604;1.364;2023-03-01T03:37:50;1.20;96.70
26408;DHT22;14583;43.604;1.364;2023-03-01T03:40:38;1.20;96.70
26408;DHT22;14583;43.604;1.364;2023-03-01T03:43:09;1.20;96.70
26408;DHT22;14583;43.604;1.364;2023-03-01T03:45:35;1.20;96.60
26408;DHT22;14583;43.604;1.364;2023-03-01T03:48:03;1.10;96.60
26408;DHT22;14583;43.604;1.364;2023-03-01T03:50:30;1.10;96.80
26408;DHT22;14583;43.604;1.364;2023-03-01T03:52:56;1.00;97.00
26408;DHT22;14583;43.604;1.364;2023-03-01T03:55:22;1.00;97.00
26408;DHT22;14583;43.604;1.364;2023-03-01T03:57:48;1.00;97.10
26408;DHT22;14583;43.604;1.364;2023-03-01T04:00:21;1.00;96.90
26408;DHT22;14583;43.604;1.364;2023-03-01T04:02:49;1.00;97.00
26408;DHT22;14583;43.604;1.364;2023-03-01T04:05:17;0.90;97.00
26408;DHT22;14583;43.604;1.364;2023-03-01T04:07:44;0.90;97.10
26408;DHT22;14583;43.604;1.364;2023-03-01T04:10:15;0.90;97.20
26408;DHT22;14583;43.604;1.364;2023-03-01T04:12:42;0.90;97.30
26408;DHT22;14583;43.604;1.364;2023-03-01T04:15:10;0.90;97.40
26408;DHT22;14583;43.604;1.364;2023-03-01T04:17:43;0.80;97.60
26408;DHT22;14583;43.604;1.364;2023-03-01T04:20:15;0.90;97.60
26408;DHT22;14583;43.604;1.364;2023-03-01T04:22:51;0.80;97.70
26408;DHT22;14583;43.604;1.364;2023-03-01T04:25:17;0.70;98.20
26408;DHT22;14583;43.604;1.364;2023-03-01T04:27:43;0.70;98.20
26408;DHT22;14583;43.604;1.364;2023-03-01T04:30:09;0.60;98.20
26408;DHT22;14583;43.604;1.364;2023-03-01T04:32:35;0.70;98.10
26408;DHT22;14583;43.604;1.364;2023-03-01T04:35:01;0.70;98.00
26408;DHT22;14583;43.604;1.364;2023-03-01T04:37:27;0.60;98.10
26408;DHT22;14583;43.604;1.364;2023-03-01T04:39:52;0.60;98.30
26408;DHT22;14583;43.604;1.364;2023-03-01T04:42:19;0.60;98.40
26408;DHT22;14583;43.604;1.364;2023-03-01T04:44:45;0.40;98.50
26408;DHT22;14583;43.604;1.364;2023-03-01T04:47:11;0.50;98.50
26408;DHT22;14583;43.604;1.364;2023-03-01T04:49:37;0.60;98.50
26408;DHT22;14583;43.604;1.364;2023-03-01T04:52:03;0.60;98.40
26408;DHT22;14583;43.604;1.364;2023-03-01T04:54:33;0.60;98.30
26408;DHT22;14583;43.604;1.364;2023-03-01T04:56:59;0.60;98.40
26408;DHT22;14583;43.604;1.364;2023-03-01T04:59:25;0.60;98.60
26408;DHT22;14583;43.604;1.364;2023-03-01T05:01:52;0.50;98.60
26408;DHT22;14583;43.604;1.364;2023-03-01T05:04:24;0.50;98.70
26408;DHT22;14583;43.604;1.364;2023-03-01T05:06:50;0.40;98.70
26408;DHT22;14583;43.604;1.364;2023-03-01T05:09:16;0.50;98.80
26408;DHT22;14583;43.604;1.364;2023-03-01T05:11:41;0.40;98.80
26408;DHT22;14583;43.604;1.364;2023-03-01T05:14:09;0.40;98.90
26408;DHT22;14583;43.604;1.364;2023-03-01T05:16:35;0.40;98.90
26408;DHT22;14583;43.604;1.364;2023-03-01T05:19:03;0.30;99.00
26408;DHT22;14583;43.604;1.364;2023-03-01T05:21:41;0.30;99.00
26408;DHT22;14583;43.604;1.364;2023-03-01T05:24:26;0.30;98.90
26408;DHT22;14583;43.604;1.364;2023-03-01T05:26:52;0.20;99.00
26408;DHT22;14583;43.604;1.364;2023-03-01T05:29:19;0.30;98.90
26408;DHT22;14583;43.604;1.364;2023-03-01T05:31:54;0.20;99.10
26408;DHT22;14583;43.604;1.364;2023-03-01T05:34:29;0.20;99.30
26408;DHT22;14583;43.604;1.364;2023-03-01T05:36:55;0.20;99.20
26408;DHT22;14583;43.604;1.364;2023-03-01T05:39:22;0.30;99.30
26408;DHT22;14583;43.604;1.364;2023-03-01T05:41:51;0.30;99.20
26408;DHT22;14583;43.604;1.364;2023-03-01T05:44:17;0.30;99.20
26408;DHT22;14583;43.604;1.364;2023-03-01T05:46:42;0.20;99.30
26408;DHT22;14583;43.604;1.364;2023-03-01T05:49:08;0.20;99.30
26408;DHT22;14583;43.604;1.364;2023-03-01T05:51:34;0.30;99.30
26408;DHT22;14583;43.604;1.364;2023-03-01T05:54:00;0.20;99.30
26408;DHT22;14583;43.604;1.364;2023-03-01T05:56:25;0.20;99.20
26408;DHT22;14583;43.604;1.364;2023-03-01T05:58:51;0.20;99.30
26408;DHT22;14583;43.604;1.364;2023-03-01T06:01:16;0.00;99.60
26408;DHT22;14583;43.604;1.364;2023-03-01T06:03:42;-0.10;99.90
26408;DHT22;14583;43.604;1.364;2023-03-01T06:06:08;-0.10;99.90
26408;DHT22;14583;43.604;1.364;2023-03-01T06:08:33;-0.10;99.90
26408;DHT22;14583;43.604;1.364;2023-03-01T06:10:59;0.00;99.90
26408;DHT22;14583;43.604;1.364;2023-03-01T06:13:25;-0.10;99.90
26408;DHT22;14583;43.604;1.364;2023-03-01T06:15:51;-0.20;99.90
26408;DHT22;14583;43.604;1.364;2023-03-01T06:18:17;-0.10;99.90
26408;DHT22;14583;43.604;1.364;2023-03-01T06:20:42;-0.20;99.90
26408;DHT22;14583;43.604;1.364;2023-03-01T06:23:08;-0.20;99.90
26408;DHT22;14583;43.604;1.364;2023-03-01T06:25:33;-0.10;99.90
26408;DHT22;14583;43.604;1.364;2023-03-01T06:27:59;-0.20;99.90
26408;DHT22;14583;43.604;1.364;2023-03-01T06:30:26;-0.30;99.90
26408;DHT22;14583;43.604;1.364;2023-03-01T06:32:52;-0.20;99.90
26408;DHT22;14583;43.604;1.364;2023-03-01T06:35:18;-0.10;99.90
26408;DHT22;14583;43.604;1.364;2023-03-01T06:37:46;-0.10;99.90
26408;DHT22;14583;43.604;1.364;2023-03-01T06:40:13;-0.30;99.90
26408;DHT22;14583;43.604;1.364;2023-03-01T06:42:42;-0.30;99.90
26408;DHT22;14583;43.604;1.364;2023-03-01T06:45:08;-0.40;99.90
26408;DHT22;14583;43.604;1.364;2023-03-01T06:47:34;-0.30;99.90
26408;DHT22;14583;43.604;1.364;2023-03-01T06:50:01;-0.10;99.90
26408;DHT22;14583;43.604;1.364;2023-03-01T06:52:27;-0.30;99.90
26408;DHT22;14583;43.604;1.364;2023-03-01T06:54:52;-0.20;99.90
26408;DHT22;14583;43.604;1.364;2023-03-01T06:57:18;0.00;99.90
26408;DHT22;14583;43.604;1.364;2023-03-01T06:59:44;0.00;99.90
26408;DHT22;14583;43.604;1.364;2023-03-01T07:02:13;-0.10;99.90
26408;DHT22;14583;43.604;1.364;2023-03-01T07:04:41;-0.10;99.90
26408;DHT22;14583;43.604;1.364;2023-03-01T07:07:06;-0.20;99.90
26408;DHT22;14583;43.604;1.364;2023-03-01T07:09:32;-0.30;99.90
26408;DHT22;14583;43.604;1.364;2023-03-01T07:11:58;-0.40;99.90
26408;DHT22;14583;43.604;1.364;2023-03-01T07:14:24;-0.20;99.90
26408;DHT22;14583;43.604;1.364;2023-03-01T07:16:51;0.00;99.90
26408;DHT22;14583;43.604;1.364;2023-03-01T07:19:18;-0.10;99.90
26408;DHT22;14583;43.604;1.364;2023-03-01T07:21:47;0.00;99.90
26408;DHT22;14583;43.604;1.364;2023-03-01T07:24:13;0.10;99.90
26408;DHT22;14583;43.604;1.364;2023-03-01T07:26:39;0.10;99.90
26408;DHT22;14583;43.604;1.364;2023-03-01T07:29:06;0.10;99.90
26408;DHT22;14583;43.604;1.364;2023-03-01T07:31:32;0.20;99.90
26408;DHT22;14583;43.604;1.364;2023-03-01T07:34:01;0.20;99.90
26408;DHT22;14583;43.604;1.364;2023-03-01T07:36:27;0.20;99.90
26408;DHT22;14583;43.604;1.364;2023-03-01T07:38:52;0.30;99.90
26408;DHT22;14583;43.604;1.364;2023-03-01T07:41:18;0.20;99.90
26408;DHT22;14583;43.604;1.364;2023-03-01T07:43:44;0.30;99.90
26408;DHT22;14583;43.604;1.364;2023-03-01T07:46:10;0.30;99.90
26408;DHT22;14583;43.604;1.364;2023-03-01T07:48:36;0.40;99.90
26408;DHT22;14583;43.604;1.364;2023-03-01T07:51:04;0.40;99.90
26408;DHT22;14583;43.604;1.364;2023-03-01T07:53:31;0.40;99.90
26408;DHT22;14583;43.604;1.364;2023-03-01T07:56:06;0.60;99.90
26408;DHT22;14583;43.604;1.364;2023-03-01T07:58:35;0.70;99.90
26408;DHT22;14583;43.604;1.364;2023-03-01T08:01:02;0.60;99.90
26408;DHT22;14583;43.604;1.364;2023-03-01T08:03:28;0.70;99.90
26408;DHT22;14583;43.604;1.364;2023-03-01T08:05:54;0.90;99.90
26408;DHT22;14583;43.604;1.364;2023-03-01T08:08:19;1.00;99.90
26408;DHT22;14583;43.604;1.364;2023-03-01T08:10:45;1.00;99.90
26408;DHT22;14583;43.604;1.364;2023-03-01T08:13:11;1.10;99.90
26408;DHT22;14583;43.604;1.364;2023-03-01T08:15:36;1.00;99.90
26408;DHT22;14583;43.604;1.364;2023-03-01T08:18:02;1.10;99.90
26408;DHT22;14583;43.604;1.364;2023-03-01T08:20:27;1.10;99.90
26408;DHT22;14583;43.604;1.364;2023-03-01T08:22:53;1.20;99.90
26408;DHT22;14583;43.604;1.364;2023-03-01T08:25:19;1.30;99.90
26408;DHT22;14583;43.604;1.364;2023-03-01T08:27:44;1.30;99.90
26408;DHT22;14583;43.604;1.364;2023-03-01T08:30:11;1.30;99.90
26408;DHT22;14583;43.604;1.364;2023-03-01T08:32:38;1.40;99.90
26408;DHT22;14583;43.604;1.364;2023-03-01T08:35:04;1.40;99.90
26408;DHT22;14583;43.604;1.364;2023-03-01T08:37:30;1.50;99.80
26408;DHT22;14583;43.604;1.364;2023-03-01T08:39:59;1.50;99.70
26408;DHT22;14583;43.604;1.364;2023-03-01T08:42:25;1.50;99.70
26408;DHT22;14583;43.604;1.364;2023-03-01T08:44:51;1.60;99.60
26408;DHT22;14583;43.604;1.364;2023-03-01T08:47:17;1.60;99.60
26408;DHT22;14583;43.604;1.364;2023-03-01T08:49:42;1.60;99.60
26408;DHT22;14583;43.604;1.364;2023-03-01T08:52:08;1.70;99.60
26408;DHT22;14583;43.604;1.364;2023-03-01T08:54:34;1.70;99.50
26408;DHT22;14583;43.604;1.364;2023-03-01T08:57:01;1.80;99.60
26408;DHT22;14583;43.604;1.364;2023-03-01T08:59:27;1.80;99.60
26408;DHT22;14583;43.604;1.364;2023-03-01T09:01:55;1.90;99.40
26408;DHT22;14583;43.604;1.364;2023-03-01T09:04:21;2.00;99.40
26408;DHT22;14583;43.604;1.364;2023-03-01T09:06:47;2.00;99.50
26408;DHT22;14583;43.604;1.364;2023-03-01T09:09:15;2.00;99.30
26408;DHT22;14583;43.604;1.364;2023-03-01T09:11:42;2.20;99.20
26408;DHT22;14583;43.604;1.364;2023-03-01T09:14:09;2.30;98.90
26408;DHT22;14583;43.604;1.364;2023-03-01T09:16:35;2.30;98.90
26408;DHT22;14583;43.604;1.364;2023-03-01T09:19:01;2.30;98.70
26408;DHT22;14583;43.604;1.364;2023-03-01T09:21:27;2.40;98.50
26408;DHT22;14583;43.604;1.364;2023-03-01T09:23:53;2.50;98.20
26408;DHT22;14583;43.604;1.364;2023-03-01T09:26:21;2.60;97.90
26408;DHT22;14583;43.604;1.364;2023-03-01T09:28:49;2.70;97.60
26408;DHT22;14583;43.604;1.364;2023-03-01T09:31:17;2.80;97.20
26408;DHT22;14583;43.604;1.364;2023-03-01T09:33:46;2.90;97.00
26408;DHT22;14583;43.604;1.364;2023-03-01T09:36:17;2.80;95.80
26408;DHT22;14583;43.604;1.364;2023-03-01T09:38:43;2.90;95.80
26408;DHT22;14583;43.604;1.364;2023-03-01T09:44:03;3.00;95.50
26408;DHT22;14583;43.604;1.364;2023-03-01T09:46:38;3.10;95.20
26408;DHT22;14583;43.604;1.364;2023-03-01T09:49:21;3.10;94.80
26408;DHT22;14583;43.604;1.364;2023-03-01T09:52:06;3.10;93.10
26408;DHT22;14583;43.604;1.364;2023-03-01T09:54:33;3.10;93.60
26408;DHT22;14583;43.604;1.364;2023-03-01T10:00:11;3.20;92.40
26408;DHT22;14583;43.604;1.364;2023-03-01T10:10:38;3.30;92.00
26408;DHT22;14583;43.604;1.364;2023-03-01T10:15:54;3.40;91.40
26408;DHT22;14583;43.604;1.364;2023-03-01T10:18:29;3.50;91.50
26408;DHT22;14583;43.604;1.364;2023-03-01T10:21:00;3.50;92.20
26408;DHT22;14583;43.604;1.364;2023-03-01T10:23:29;3.60;92.60
26408;DHT22;14583;43.604;1.364;2023-03-01T10:31:44;3.70;92.00
26408;DHT22;14583;43.604;1.364;2023-03-01T10:36:47;3.90;91.90
26408;DHT22;14583;43.604;1.364;2023-03-01T10:39:22;3.70;90.90
26408;DHT22;14583;43.604;1.364;2023-03-01T10:42:18;3.80;91.10
26408;DHT22;14583;43.604;1.364;2023-03-01T10:44:46;3.90;91.10
26408;DHT22;14583;43.604;1.364;2023-03-01T10:47:18;3.80;91.00
26408;DHT22;14583;43.604;1.364;2023-03-01T10:52:25;4.00;90.70
26408;DHT22;14583;43.604;1.364;2023-03-01T10:54:54;4.00;91.00
26408;DHT22;14583;43.604;1.364;2023-03-01T10:57:35;3.90;91.10
26408;DHT22;14583;43.604;1.364;2023-03-01T11:02:38;4.00;91.40
26408;DHT22;14583;43.604;1.364;2023-03-01T11:07:52;4.10;91.20
26408;DHT22;14583;43.604;1.364;2023-03-01T11:10:23;4.10;90.60
26408;DHT22;14583;43.604;1.364;2023-03-01T11:12:51;4.20;90.60
26408;DHT22;14583;43.604;1.364;2023-03-01T11:15:26;4.20;89.10
26408;DHT22;14583;43.604;1.364;2023-03-01T11:17:52;4.20;89.50
26408;DHT22;14583;43.604;1.364;2023-03-01T11:20:35;4.30;87.30
26408;DHT22;14583;43.604;1.364;2023-03-01T11:23:05;4.50;87.10
26408;DHT22;14583;43.604;1.364;2023-03-01T11:25:37;4.40;87.00
26408;DHT22;14583;43.604;1.364;2023-03-01T11:28:06;4.50;85.80
26408;DHT22;14583;43.604;1.364;2023-03-01T11:31:03;4.60;85.70
26408;DHT22;14583;43.604;1.364;2023-03-01T11:33:34;4.50;85.30
26408;DHT22;14583;43.604;1.364;2023-03-01T11:36:19;4.50;85.80
26408;DHT22;14583;43.604;1.364;2023-03-01T11:38:48;4.40;86.90
26408;DHT22;14583;43.604;1.364;2023-03-01T11:41:20;4.40;87.80
26408;DHT22;14583;43.604;1.364;2023-03-01T11:49:11;4.50;88.30
26408;DHT22;14583;43.604;1.364;2023-03-01T11:59:55;5.00;85.90
26408;DHT22;14583;43.604;1.364;2023-03-01T12:02:51;4.90;87.10
26408;DHT22;14583;43.604;1.364;2023-03-01T12:10:35;5.00;87.40
26408;DHT22;14583;43.604;1.364;2023-03-01T12:18:40;5.00;88.10
26408;DHT22;14583;43.604;1.364;2023-03-01T12:27:23;5.10;86.20
26408;DHT22;14583;43.604;1.364;2023-03-01T12:33:00;5.50;86.50
26408;DHT22;14583;43.604;1.364;2023-03-01T12:44:30;5.40;86.50
26408;DHT22;14583;43.604;1.364;2023-03-01T12:47:11;5.40;86.70
26408;DHT22;14583;43.604;1.364;2023-03-01T12:49:45;5.40;86.30
26408;DHT22;14583;43.604;1.364;2023-03-01T12:52:23;5.50;85.90
26408;DHT22;14583;43.604;1.364;2023-03-01T12:54:51;5.40;86.30
26408;DHT22;14583;43.604;1.364;2023-03-01T12:57:37;5.50;85.90
26408;DHT22;14583;43.604;1.364;2023-03-01T13:00:28;5.50;86.20
26408;DHT22;14583;43.604;1.364;2023-03-01T13:03:20;5.50;86.30
26408;DHT22;14583;43.604;1.364;2023-03-01T13:08:29;5.60;86.10
26408;DHT22;14583;43.604;1.364;2023-03-01T13:11:04;5.60;85.80
26408;DHT22;14583;43.604;1.364;2023-03-01T13:13:31;5.60;85.20
26408;DHT22;14583;43.604;1.364;2023-03-01T13:15:57;5.60;85.70
26408;DHT22;14583;43.604;1.364;2023-03-01T13:20:58;5.80;84.80
26408;DHT22;14583;43.604;1.364;2023-03-01T13:23:34;5.80;84.40
26408;DHT22;14583;43.604;1.364;2023-03-01T13:33:47;6.00;83.20
26408;DHT22;14583;43.604;1.364;2023-03-01T13:46:43;6.70;81.70
26408;DHT22;14583;43.604;1.364;2023-03-01T13:49:15;6.60;81.60
26408;DHT22;14583;43.604;1.364;2023-03-01T13:51:41;6.70;81.30
26408;DHT22;14583;43.604;1.364;2023-03-01T13:54:12;6.80;81.50
26408;DHT22;14583;43.604;1.364;2023-03-01T13:56:39;6.90;81.20
26408;DHT22;14583;43.604;1.364;2023-03-01T13:59:20;6.80;81.60
26408;DHT22;14583;43.604;1.364;2023-03-01T14:01:58;6.90;83.00
26408;DHT22;14583;43.604;1.364;2023-03-01T14:04:29;7.10;82.70
26408;DHT22;14583;43.604;1.364;2023-03-01T14:07:13;7.10;82.40
26408;DHT22;14583;43.604;1.364;2023-03-01T14:09:44;7.30;82.10
26408;DHT22;14583;43.604;1.364;2023-03-01T14:12:30;7.40;81.40
26408;DHT22;14583;43.604;1.364;2023-03-01T14:15:22;7.20;81.50
26408;DHT22;14583;43.604;1.364;2023-03-01T14:20:42;7.50;82.40
26408;DHT22;14583;43.604;1.364;2023-03-01T14:23:17;7.70;82.00
26408;DHT22;14583;43.604;1.364;2023-03-01T14:25:51;7.90;82.10
26408;DHT22;14583;43.604;1.364;2023-03-01T14:28:20;7.80;80.40
26408;DHT22;14583;43.604;1.364;2023-03-01T14:30:48;7.80;80.40
26408;DHT22;14583;43.604;1.364;2023-03-01T14:33:35;7.80;80.20
26408;DHT22;14583;43.604;1.364;2023-03-01T14:36:07;7.90;80.40
26408;DHT22;14583;43.604;1.364;2023-03-01T14:38:47;8.00;79.80
26408;DHT22;14583;43.604;1.364;2023-03-01T14:41:17;8.10;80.40
26408;DHT22;14583;43.604;1.364;2023-03-01T14:44:05;8.10;80.50
26408;DHT22;14583;43.604;1.364;2023-03-01T14:46:34;8.40;81.20
26408;DHT22;14583;43.604;1.364;2023-03-01T14:49:17;8.40;81.00
26408;DHT22;14583;43.604;1.364;2023-03-01T14:51:58;8.30;80.20
26408;DHT22;14583;43.604;1.364;2023-03-01T14:57:01;8.70;79.70
26408;DHT22;14583;43.604;1.364;2023-03-01T14:59:27;8.70;79.60
26408;DHT22;14583;43.604;1.364;2023-03-01T15:01:55;8.90;81.00
26408;DHT22;14583;43.604;1.364;2023-03-01T15:04:22;9.00;80.60
26408;DHT22;14583;43.604;1.364;2023-03-01T15:06:54;9.20;81.00
26408;DHT22;14583;43.604;1.364;2023-03-01T15:09:21;9.60;79.40
26408;DHT22;14583;43.604;1.364;2023-03-01T15:11:47;9.80;79.30
26408;DHT22;14583;43.604;1.364;2023-03-01T15:14:26;10.00;78.80
26408;DHT22;14583;43.604;1.364;2023-03-01T15:16:53;10.30;79.20
26408;DHT22;14583;43.604;1.364;2023-03-01T15:19:19;10.30;78.10
26408;DHT22;14583;43.604;1.364;2023-03-01T15:21:48;10.80;76.90
26408;DHT22;14583;43.604;1.364;2023-03-01T15:24:20;11.20;76.20
26408;DHT22;14583;43.604;1.364;2023-03-01T15:26:57;11.40;71.70
26408;DHT22;14583;43.604;1.364;2023-03-01T15:29:29;12.50;72.80
26408;DHT22;14583;43.604;1.364;2023-03-01T15:32:03;17.70;66.90
26408;DHT22;14583;43.604;1.364;2023-03-01T15:34:32;21.10;58.40
26408;DHT22;14583;43.604;1.364;2023-03-01T15:37:01;22.90;49.90
26408;DHT22;14583;43.604;1.364;2023-03-01T15:39:41;24.10;49.50
26408;DHT22;14583;43.604;1.364;2023-03-01T15:42:11;25.10;45.80
26408;DHT22;14583;43.604;1.364;2023-03-01T15:44:40;24.70;45.00
26408;DHT22;14583;43.604;1.364;2023-03-01T15:47:30;22.40;45.10
26408;DHT22;14583;43.604;1.364;2023-03-01T15:49:57;24.80;44.90
26408;DHT22;14583;43.604;1.364;2023-03-01T15:52:26;24.00;42.50
26408;DHT22;14583;43.604;1.364;2023-03-01T15:55:01;24.30;43.90
26408;DHT22;14583;43.604;1.364;2023-03-01T15:57:27;25.20;42.60
26408;DHT22;14583;43.604;1.364;2023-03-01T15:59:53;25.30;42.90
26408;DHT22;14583;43.604;1.364;2023-03-01T16:02:21;24.80;42.00
26408;DHT22;14583;43.604;1.364;2023-03-01T16:04:47;25.10;42.30
26408;DHT22;14583;43.604;1.364;2023-03-01T16:07:16;23.70;41.70
26408;DHT22;14583;43.604;1.364;2023-03-01T16:09:42;24.00;42.40
26408;DHT22;14583;43.604;1.364;2023-03-01T16:12:14;24.80;42.00
26408;DHT22;14583;43.604;1.364;2023-03-01T16:14:40;24.40;41.70
26408;DHT22;14583;43.604;1.364;2023-03-01T16:17:05;23.70;42.20
26408;DHT22;14583;43.604;1.364;2023-03-01T16:19:32;23.90;41.90
26408;DHT22;14583;43.604;1.364;2023-03-01T16:21:58;24.10;41.30
26408;DHT22;14583;43.604;1.364;2023-03-01T16:24:24;23.60;41.90
26408;DHT22;14583;43.604;1.364;2023-03-01T16:26:51;22.80;42.50
26408;DHT22;14583;43.604;1.364;2023-03-01T16:29:17;22.70;42.70
26408;DHT22;14583;43.604;1.364;2023-03-01T16:31:42;22.40;42.40
26408;DHT22;14583;43.604;1.364;2023-03-01T16:34:08;21.10;43.60
26408;DHT22;14583;43.604;1.364;2023-03-01T16:36:33;20.90;44.50
26408;DHT22;14583;43.604;1.364;2023-03-01T16:39:00;19.90;44.70
26408;DHT22;14583;43.604;1.364;2023-03-01T16:41:27;17.80;45.80
26408;DHT22;14583;43.604;1.364;2023-03-01T16:43:53;15.90;48.60
26408;DHT22;14583;43.604;1.364;2023-03-01T16:46:19;15.00;49.40
26408;DHT22;14583;43.604;1.364;2023-03-01T16:48:46;14.20;51.40
26408;DHT22;14583;43.604;1.364;2023-03-01T16:51:12;13.80;51.30
26408;DHT22;14583;43.604;1.364;2023-03-01T16:53:38;12.30;53.30
26408;DHT22;14583;43.604;1.364;2023-03-01T16:56:09;11.70;55.00
26408;DHT22;14583;43.604;1.364;2023-03-01T16:58:36;13.10;54.90
26408;DHT22;14583;43.604;1.364;2023-03-01T17:01:15;12.80;53.10
26408;DHT22;14583;43.604;1.364;2023-03-01T17:03:42;11.90;54.40
26408;DHT22;14583;43.604;1.364;2023-03-01T17:06:11;11.60;55.50
26408;DHT22;14583;43.604;1.364;2023-03-01T17:08:38;10.70;55.70
26408;DHT22;14583;43.604;1.364;2023-03-01T17:11:05;9.80;57.40
26408;DHT22;14583;43.604;1.364;2023-03-01T17:13:31;9.40;58.90
26408;DHT22;14583;43.604;1.364;2023-03-01T17:15:56;8.80;59.50
26408;DHT22;14583;43.604;1.364;2023-03-01T17:18:25;8.70;60.40
26408;DHT22;14583;43.604;1.364;2023-03-01T17:20:50;8.20;61.00
26408;DHT22;14583;43.604;1.364;2023-03-01T17:23:16;8.00;62.50
26408;DHT22;14583;43.604;1.364;2023-03-01T17:25:43;8.00;63.10
26408;DHT22;14583;43.604;1.364;2023-03-01T17:28:11;8.00;63.20
26408;DHT22;14583;43.604;1.364;2023-03-01T17:30:38;7.60;63.40
26408;DHT22;14583;43.604;1.364;2023-03-01T17:33:06;7.40;64.20
26408;DHT22;14583;43.604;1.364;2023-03-01T17:35:31;7.30;64.30
26408;DHT22;14583;43.604;1.364;2023-03-01T17:38:03;7.20;65.10
26408;DHT22;14583;43.604;1.364;2023-03-01T17:40:29;7.10;66.20
26408;DHT22;14583;43.604;1.364;2023-03-01T17:42:55;7.00;66.40
26408;DHT22;14583;43.604;1.364;2023-03-01T17:45:21;7.00;67.30
26408;DHT22;14583;43.604;1.364;2023-03-01T17:47:47;6.80;67.80
26408;DHT22;14583;43.604;1.364;2023-03-01T17:50:13;6.70;67.40
26408;DHT22;14583;43.604;1.364;2023-03-01T17:52:39;6.60;68.50